Time;durP1;ratioP1;P1;durP2;ratioP2;P2;SDS_P1;SDS_P2;PMS_P1;PMS_P2;Temp;Humidity;BMP_temperature;BMP_pressure;BME280_temperature;BME280_humidity;BME280_pressure;Samples;Min_cycle;Max_cycle;Signal;HPM_P1;HPM_P2
2022/12/27 00:00:33;;;;;;;;;;;21.40;75.70;;;;;;1564188;74;719;-60
2022/12/27 00:02:38;;;;;;;;;;;21.40;75.80;;;;;;1563746;74;799;-60
2022/12/27 00:04:39;;;;;;;;;;;21.40;75.80;;;;;;1578355;74;799;-60
2022/12/27 00:06:41;;;;;;;;;;;21.30;75.90;;;;;;1576549;74;788;-62
2022/12/27 00:08:43;;;;;;;;;;;21.40;75.80;;;;;;1564002;74;1140;-62
2022/12/27 00:10:45;;;;;;;;;;;21.40;75.80;;;;;;1568314;74;1926;-60
2022/12/27 00:12:47;;;;;;;;;;;21.30;75.80;;;;;;1570002;74;755;-60
2022/12/27 00:14:49;;;;;;;;;;;21.40;75.70;;;;;;1572963;74;764;-61
2022/12/27 00:16:51;;;;;;;;;;;21.40;75.80;;;;;;1571984;74;767;-60
2022/12/27 00:18:53;;;;;;;;;;;21.40;75.70;;;;;;1563274;74;1131;-61
2022/12/27 00:20:58;;;;;;;;;;;21.30;75.80;;;;;;1569677;74;725;-60
2022/12/27 00:23:00;;;;;;;;;;;21.40;75.60;;;;;;1566531;74;800;-60
2022/12/27 00:25:02;;;;;;;;;;;21.40;75.70;;;;;;1553802;74;915;-62
2022/12/27 00:27:04;;;;;;;;;;;21.50;75.70;;;;;;1570124;74;787;-61
2022/12/27 00:29:06;;;;;;;;;;;21.40;75.60;;;;;;1567490;74;1124;-62
2022/12/27 00:31:08;;;;;;;;;;;21.40;75.60;;;;;;1562623;74;1930;-60
2022/12/27 00:33:10;;;;;;;;;;;21.30;75.70;;;;;;1561199;74;800;-62
2022/12/27 00:35:12;;;;;;;;;;;21.40;75.60;;;;;;1569121;74;773;-61
2022/12/27 00:37:13;;;;;;;;;;;21.40;75.60;;;;;;1568998;74;724;-61
2022/12/27 00:39:15;;;;;;;;;;;21.40;75.60;;;;;;1571630;74;1120;-61
2022/12/27 00:41:17;;;;;;;;;;;21.30;75.60;;;;;;1568251;74;805;-59
2022/12/27 00:43:19;;;;;;;;;;;21.40;75.50;;;;;;1562225;74;807;-62
2022/12/27 00:45:21;;;;;;;;;;;21.40;75.60;;;;;;1558352;74;837;-62
2022/12/27 00:47:23;;;;;;;;;;;21.30;75.60;;;;;;1567582;74;792;-60
2022/12/27 00:49:25;;;;;;;;;;;21.40;75.60;;;;;;1569238;74;1147;-60
2022/12/27 00:51:27;;;;;;;;;;;21.40;75.70;;;;;;1571233;74;1930;-62
2022/12/27 00:53:29;;;;;;;;;;;21.30;75.80;;;;;;1562751;74;1222;-60
2022/12/27 00:55:31;;;;;;;;;;;21.40;75.70;;;;;;1571238;74;738;-60
2022/12/27 00:57:32;;;;;;;;;;;21.40;75.70;;;;;;1567735;74;743;-60
2022/12/27 00:59:34;;;;;;;;;;;21.40;75.60;;;;;;1560789;74;1127;-59
2022/12/27 01:01:36;;;;;;;;;;;21.50;75.60;;;;;;1561637;74;704;-60
2022/12/27 01:03:38;;;;;;;;;;;21.40;75.50;;;;;;1562966;74;821;-61
2022/12/27 01:05:40;;;;;;;;;;;21.50;75.40;;;;;;1569606;74;734;-59
2022/12/27 01:07:42;;;;;;;;;;;21.50;75.50;;;;;;1564795;74;1498;-60
2022/12/27 01:09:44;;;;;;;;;;;21.40;75.30;;;;;;1570047;74;1136;-59
2022/12/27 01:11:46;;;;;;;;;;;21.40;75.30;;;;;;1559013;74;1947;-59
2022/12/27 01:13:47;;;;;;;;;;;21.50;75.40;;;;;;1564338;74;588;-61
2022/12/27 01:15:49;;;;;;;;;;;21.50;75.30;;;;;;1569205;74;732;-62
2022/12/27 01:17:51;;;;;;;;;;;21.50;75.30;;;;;;1578160;74;732;-59
2022/12/27 01:19:53;;;;;;;;;;;21.50;75.30;;;;;;1579010;74;1142;-60
2022/12/27 01:21:55;;;;;;;;;;;21.50;75.20;;;;;;1567526;74;1557;-59
2022/12/27 01:23:57;;;;;;;;;;;21.50;75.20;;;;;;1574192;74;658;-61
2022/12/27 01:26:00;;;;;;;;;;;21.50;75.10;;;;;;1568807;74;782;-60
2022/12/27 01:28:02;;;;;;;;;;;21.50;75.00;;;;;;1556966;74;1703;-60
2022/12/27 01:30:04;;;;;;;;;;;21.50;75.00;;;;;;1557887;74;1124;-60
2022/12/27 01:32:06;;;;;;;;;;;21.50;75.00;;;;;;1570338;74;1962;-59
2022/12/27 01:34:08;;;;;;;;;;;21.50;74.90;;;;;;1566082;74;745;-59
2022/12/27 01:36:11;;;;;;;;;;;21.50;74.90;;;;;;1559990;74;1530;-61
2022/12/27 01:38:13;;;;;;;;;;;21.50;74.80;;;;;;1568901;74;761;-60
2022/12/27 01:40:15;;;;;;;;;;;21.50;74.80;;;;;;1567724;74;1204;-60
2022/12/27 01:44:59;;;;;;;;;;;21.60;74.70;;;;;;1576629;74;754;-59
2022/12/27 01:46:47;;;;;;;;;;;21.50;74.70;;;;;;1565166;74;1565;-58
2022/12/27 01:48:49;;;;;;;;;;;21.50;74.60;;;;;;1566782;74;1159;-58
2022/12/27 01:50:52;;;;;;;;;;;21.50;74.70;;;;;;1568987;74;1541;-58
2022/12/27 01:52:56;;;;;;;;;;;21.50;74.80;;;;;;1562566;74;1934;-60
2022/12/27 01:54:59;;;;;;;;;;;21.50;74.70;;;;;;1570375;74;770;-58
2022/12/27 01:57:01;;;;;;;;;;;21.50;74.70;;;;;;1583729;74;704;-59
2022/12/27 01:59:04;;;;;;;;;;;21.60;74.70;;;;;;1558484;74;1122;-57
2022/12/27 02:01:07;;;;;;;;;;;21.50;74.60;;;;;;1555445;74;705;-58
2022/12/27 02:03:09;;;;;;;;;;;21.50;74.90;;;;;;1558107;74;682;-58
2022/12/27 02:05:11;;;;;;;;;;;21.50;74.80;;;;;;1566092;74;1870;-57
2022/12/27 02:07:13;;;;;;;;;;;21.60;74.80;;;;;;1571058;74;789;-59
2022/12/27 02:09:19;;;;;;;;;;;21.60;74.70;;;;;;1570611;74;1145;-57
2022/12/27 02:11:49;;;;;;;;;;;21.60;74.60;;;;;;1566945;74;1954;-58
2022/12/27 02:13:26;;;;;;;;;;;21.60;74.60;;;;;;1554967;74;1222;-58
2022/12/27 02:15:28;;;;;;;;;;;21.60;74.70;;;;;;1569343;74;760;-58
2022/12/27 02:17:30;;;;;;;;;;;21.60;74.70;;;;;;1561994;74;1530;-59
2022/12/27 02:19:36;;;;;;;;;;;21.60;74.60;;;;;;1570985;74;1113;-58
2022/12/27 02:21:49;;;;;;;;;;;21.60;74.60;;;;;;1565992;74;671;-58
2022/12/27 02:24:05;;;;;;;;;;;21.60;74.50;;;;;;1562273;74;720;-58
2022/12/27 02:26:27;;;;;;;;;;;21.60;74.50;;;;;;1559740;74;684;-60
2022/12/27 02:28:47;;;;;;;;;;;21.50;74.50;;;;;;1566680;74;2136;-59
2022/12/27 02:30:49;;;;;;;;;;;21.60;74.50;;;;;;1562765;74;717;-60
2022/12/27 02:32:58;;;;;;;;;;;21.50;74.60;;;;;;1553300;74;1939;-60
2022/12/27 02:35:17;;;;;;;;;;;21.50;74.70;;;;;;1566187;74;1758;-58
2022/12/27 02:37:19;;;;;;;;;;;21.50;74.70;;;;;;1523682;77;1047;-59
2022/12/27 02:39:20;;;;;;;;;;;21.50;74.80;;;;;;1539527;74;1159;-60
2022/12/27 02:53:33;;;;;;;;;;;21.50;74.50;;;;;;1561960;74;1776;-60
2022/12/27 02:57:07;;;;;;;;;;;21.50;74.60;;;;;;1571214;74;751;-60
2022/12/27 02:58:05;;;;;;;;;;;21.50;74.60;;;;;;1570913;74;1512;-60
2022/12/27 03:04:51;;;;;;;;;;;21.50;74.60;;;;;;1568015;74;727;-60
2022/12/27 03:07:11;;;;;;;;;;;21.50;74.50;;;;;;1551895;74;1788;-60
2022/12/27 03:16:27;;;;;;;;;;;21.50;74.30;;;;;;1550734;75;724;-59
2022/12/27 03:18:39;;;;;;;;;;;21.50;74.30;;;;;;1582117;74;1160;-60
2022/12/27 03:25:27;;;;;;;;;;;21.40;74.80;;;;;;1559845;74;1646;-61
2022/12/27 03:27:30;;;;;;;;;;;21.40;75.00;;;;;;1562317;74;681;-60
2022/12/27 03:34:34;;;;;;;;;;;21.40;76.20;;;;;;1560539;74;1659;-60
2022/12/27 03:39:06;;;;;;;;;;;21.30;76.50;;;;;;1570905;74;1139;-60
2022/12/27 03:43:27;;;;;;;;;;;21.30;76.80;;;;;;1561933;74;1729;-62
2022/12/27 03:47:53;;;;;;;;;;;21.30;76.80;;;;;;1569896;74;1693;-61
2022/12/27 03:49:56;;;;;;;;;;;21.30;77.00;;;;;;1563124;74;1183;-60
2022/12/27 03:52:03;;;;;;;;;;;21.30;77.30;;;;;;1555222;74;1926;-59
2022/12/27 03:54:09;;;;;;;;;;;21.30;77.50;;;;;;1566179;74;682;-60
2022/12/27 03:56:11;;;;;;;;;;;21.20;77.50;;;;;;1551612;74;1522;-60
2022/12/27 03:58:13;;;;;;;;;;;21.30;77.60;;;;;;1574530;74;775;-61
2022/12/27 04:00:15;;;;;;;;;;;21.30;77.60;;;;;;1568489;74;1100;-60
2022/12/27 04:02:17;;;;;;;;;;;21.30;77.50;;;;;;1557383;74;743;-60
2022/12/27 04:04:19;;;;;;;;;;;21.40;77.40;;;;;;1567991;74;725;-61
2022/12/27 04:06:20;;;;;;;;;;;21.40;77.30;;;;;;1586884;74;805;-61
2022/12/27 04:36:20;;;;;;;;;;;21.50;77.10;;;;;;1531629;76;1983;-58
2022/12/27 04:38:22;;;;;;;;;;;21.60;77.00;;;;;;1529815;76;1430;-60
2022/12/27 04:56:40;;;;;;;;;;;21.60;76.50;;;;;;1568959;74;1900;-57
2022/12/27 05:02:02;;;;;;;;;;;21.60;76.40;;;;;;1569262;73;1112;-58
2022/12/27 05:03:07;;;;;;;;;;;21.70;76.40;;;;;;1564520;74;1626;-57
2022/12/27 05:05:09;;;;;;;;;;;21.70;76.40;;;;;;1559724;74;1873;-58
2022/12/27 05:14:03;;;;;;;;;;;21.80;76.30;;;;;;1473560;79;1092;-59
2022/12/27 05:16:05;;;;;;;;;;;21.80;76.20;;;;;;1551316;74;847;-58
2022/12/27 05:18:07;;;;;;;;;;;21.70;76.40;;;;;;1570766;74;782;-59
2022/12/27 05:20:10;;;;;;;;;;;21.80;76.20;;;;;;1570507;74;1416;-59
2022/12/27 05:26:51;;;;;;;;;;;21.80;76.30;;;;;;1576069;74;1624;-59
2022/12/27 05:28:53;;;;;;;;;;;21.80;76.20;;;;;;1537040;75;1092;-59
2022/12/27 05:30:57;;;;;;;;;;;21.80;76.20;;;;;;1573028;74;796;-59
2022/12/27 05:32:59;;;;;;;;;;;21.90;76.10;;;;;;1570309;74;1914;-59
2022/12/27 05:35:01;;;;;;;;;;;21.80;75.90;;;;;;1571358;74;1457;-59
2022/12/27 05:37:02;;;;;;;;;;;21.90;75.80;;;;;;1563594;74;698;-59
2022/12/27 05:39:04;;;;;;;;;;;21.90;75.40;;;;;;1568265;74;1076;-59
2022/12/27 05:41:06;;;;;;;;;;;21.90;75.30;;;;;;1577962;74;756;-59
2022/12/27 05:43:08;;;;;;;;;;;21.90;75.20;;;;;;1571735;74;665;-59
2022/12/27 05:45:11;;;;;;;;;;;22.00;75.00;;;;;;1568951;74;720;-59
2022/12/27 05:47:12;;;;;;;;;;;22.00;74.80;;;;;;1565529;74;750;-59
2022/12/27 05:49:14;;;;;;;;;;;22.00;74.70;;;;;;1570029;74;1454;-59
2022/12/27 05:51:17;;;;;;;;;;;22.00;74.70;;;;;;1571014;74;791;-60
2022/12/27 05:53:19;;;;;;;;;;;22.00;74.60;;;;;;1569078;74;1913;-59
2022/12/27 05:55:21;;;;;;;;;;;22.00;74.50;;;;;;1569743;74;719;-59
2022/12/27 05:57:23;;;;;;;;;;;22.10;74.50;;;;;;1569395;74;738;-59
2022/12/27 05:59:24;;;;;;;;;;;22.00;74.50;;;;;;1569941;74;1136;-59
2022/12/27 06:01:26;;;;;;;;;;;22.00;74.60;;;;;;1560466;74;768;-59
2022/12/27 06:03:28;;;;;;;;;;;22.10;74.60;;;;;;1565398;74;1507;-59
2022/12/27 06:05:30;;;;;;;;;;;22.10;74.40;;;;;;1568474;74;582;-59
2022/12/27 06:07:32;;;;;;;;;;;22.10;74.40;;;;;;1569299;74;710;-58
2022/12/27 06:09:34;;;;;;;;;;;22.00;74.30;;;;;;1571223;74;1116;-58
2022/12/27 06:11:36;;;;;;;;;;;22.00;74.30;;;;;;1569986;74;759;-58
2022/12/27 06:13:38;;;;;;;;;;;22.00;74.30;;;;;;1571136;74;1938;-59
2022/12/27 06:15:40;;;;;;;;;;;22.00;74.30;;;;;;1569828;74;704;-59
2022/12/27 06:17:42;;;;;;;;;;;22.00;74.30;;;;;;1569582;74;1476;-58
2022/12/27 06:19:44;;;;;;;;;;;22.00;74.20;;;;;;1569066;74;1140;-58
2022/12/27 06:21:46;;;;;;;;;;;22.00;74.10;;;;;;1570782;74;724;-58
2022/12/27 06:23:48;;;;;;;;;;;22.00;74.20;;;;;;1566107;74;1074;-58
2022/12/27 06:25:50;;;;;;;;;;;22.00;74.10;;;;;;1568175;74;676;-58
2022/12/27 06:27:52;;;;;;;;;;;22.00;74.20;;;;;;1569613;74;743;-58
2022/12/27 06:29:54;;;;;;;;;;;22.00;74.10;;;;;;1573016;74;1111;-57
2022/12/27 06:31:56;;;;;;;;;;;22.00;74.10;;;;;;1565869;74;1440;-57
2022/12/27 06:33:58;;;;;;;;;;;22.00;74.10;;;;;;1570916;74;1910;-58
2022/12/27 06:36:01;;;;;;;;;;;22.00;74.00;;;;;;1570162;74;807;-57
2022/12/27 06:38:03;;;;;;;;;;;22.00;74.00;;;;;;1569698;74;1796;-58
2022/12/27 06:40:06;;;;;;;;;;;22.00;74.00;;;;;;1571246;74;1126;-60
2022/12/27 06:42:08;;;;;;;;;;;22.00;74.00;;;;;;1570769;74;803;-58
2022/12/27 06:44:09;;;;;;;;;;;21.90;74.00;;;;;;1569030;74;774;-59
2022/12/27 06:46:13;;;;;;;;;;;22.00;74.00;;;;;;1569173;74;1568;-59
2022/12/27 06:48:15;;;;;;;;;;;22.00;73.90;;;;;;1571963;74;658;-57
2022/12/27 06:50:16;;;;;;;;;;;21.90;73.90;;;;;;1569187;74;752;-57
2022/12/27 06:52:18;;;;;;;;;;;21.90;73.90;;;;;;1570703;74;694;-57
2022/12/27 06:54:20;;;;;;;;;;;21.90;73.90;;;;;;1567911;74;1959;-58
2022/12/27 06:56:22;;;;;;;;;;;21.90;73.90;;;;;;1570718;74;789;-57
2022/12/27 06:58:24;;;;;;;;;;;21.90;73.80;;;;;;1571798;73;1178;-59
2022/12/27 07:00:26;;;;;;;;;;;21.90;73.80;;;;;;1569499;74;1598;-58
2022/12/27 07:02:28;;;;;;;;;;;21.90;73.90;;;;;;1565875;74;714;-58
2022/12/27 07:04:29;;;;;;;;;;;21.80;73.70;;;;;;1569492;74;711;-57
2022/12/27 07:06:31;;;;;;;;;;;21.80;73.80;;;;;;1569336;74;719;-58
2022/12/27 07:08:35;;;;;;;;;;;21.80;73.80;;;;;;1571383;74;1215;-58
2022/12/27 07:10:37;;;;;;;;;;;21.80;73.90;;;;;;1567914;74;1562;-59
2022/12/27 07:12:39;;;;;;;;;;;21.80;74.00;;;;;;1574280;74;1938;-59
2022/12/27 07:14:41;;;;;;;;;;;21.80;74.00;;;;;;1572119;74;699;-58
2022/12/27 07:16:42;;;;;;;;;;;21.70;74.10;;;;;;1566980;74;712;-58
2022/12/27 07:18:44;;;;;;;;;;;21.80;74.10;;;;;;1571260;74;1151;-58
2022/12/27 07:20:46;;;;;;;;;;;21.80;74.10;;;;;;1572415;74;703;-59
2022/12/27 07:22:48;;;;;;;;;;;21.80;74.20;;;;;;1566632;74;696;-59
2022/12/27 07:24:50;;;;;;;;;;;21.70;74.30;;;;;;1572396;74;731;-59
2022/12/27 07:26:52;;;;;;;;;;;21.70;74.50;;;;;;1572014;74;1348;-58
2022/12/27 07:28:54;;;;;;;;;;;21.70;74.50;;;;;;1572681;74;1144;-58
2022/12/27 07:30:56;;;;;;;;;;;21.80;74.80;;;;;;1571677;74;728;-60
2022/12/27 07:32:58;;;;;;;;;;;21.80;74.80;;;;;;1572745;74;1926;-59
2022/12/27 07:35:00;;;;;;;;;;;21.80;74.60;;;;;;1572754;74;726;-58
2022/12/27 07:37:02;;;;;;;;;;;21.80;74.60;;;;;;1572051;74;705;-59
2022/12/27 07:39:04;;;;;;;;;;;21.80;72.50;;;;;;1571314;74;1132;-58
2022/12/27 07:41:06;;;;;;;;;;;21.70;68.50;;;;;;1569297;74;1429;-58
2022/12/27 07:43:07;;;;;;;;;;;21.70;65.60;;;;;;1579040;74;690;-59
2022/12/27 07:45:09;;;;;;;;;;;21.70;63.10;;;;;;1568916;74;700;-58
2022/12/27 07:47:11;;;;;;;;;;;21.70;61.30;;;;;;1565417;74;729;-58
2022/12/27 07:49:13;;;;;;;;;;;21.60;60.10;;;;;;1570545;74;1197;-59
2022/12/27 07:51:15;;;;;;;;;;;21.50;58.90;;;;;;1570694;74;698;-58
2022/12/27 07:53:17;;;;;;;;;;;21.50;57.70;;;;;;1571718;74;1945;-58
2022/12/27 07:55:19;;;;;;;;;;;21.50;56.80;;;;;;1570857;74;1468;-58
2022/12/27 07:57:21;;;;;;;;;;;21.40;56.10;;;;;;1573069;74;679;-58
2022/12/27 07:59:23;;;;;;;;;;;21.40;55.40;;;;;;1573373;74;1127;-59
2022/12/27 08:01:26;;;;;;;;;;;21.30;54.90;;;;;;1568746;74;683;-59
2022/12/27 08:03:28;;;;;;;;;;;21.30;54.20;;;;;;1572481;74;954;-59
2022/12/27 08:05:30;;;;;;;;;;;21.20;53.60;;;;;;1570797;74;666;-58
2022/12/27 08:07:32;;;;;;;;;;;21.10;53.10;;;;;;1579290;74;1061;-59
2022/12/27 08:09:35;;;;;;;;;;;21.10;52.80;;;;;;1570625;74;1366;-59
2022/12/27 08:11:37;;;;;;;;;;;21.00;53.80;;;;;;1569805;74;808;-60
2022/12/27 08:13:39;;;;;;;;;;;21.00;53.60;;;;;;1570503;74;1931;-58
2022/12/27 08:15:41;;;;;;;;;;;21.00;53.10;;;;;;1569188;74;662;-58
2022/12/27 08:17:43;;;;;;;;;;;20.90;52.40;;;;;;1571591;74;923;-59
2022/12/27 08:19:45;;;;;;;;;;;20.90;51.90;;;;;;1571321;74;1146;-58
2022/12/27 08:21:47;;;;;;;;;;;20.90;51.40;;;;;;1570847;74;706;-58
2022/12/27 08:23:49;;;;;;;;;;;20.90;51.00;;;;;;1570230;74;1442;-59
2022/12/27 08:25:51;;;;;;;;;;;20.90;50.70;;;;;;1569876;74;819;-58
2022/12/27 08:27:53;;;;;;;;;;;20.80;50.50;;;;;;1557542;74;727;-58
2022/12/27 08:29:55;;;;;;;;;;;20.80;50.40;;;;;;1569587;74;1095;-59
2022/12/27 08:31:57;;;;;;;;;;;20.70;50.20;;;;;;1571776;74;718;-57
2022/12/27 08:33:59;;;;;;;;;;;20.80;50.10;;;;;;1569618;74;1930;-59
2022/12/27 08:36:02;;;;;;;;;;;20.70;49.80;;;;;;1571512;74;699;-58
2022/12/27 08:38:04;;;;;;;;;;;20.70;49.40;;;;;;1567867;74;2001;-59
2022/12/27 08:40:06;;;;;;;;;;;20.70;49.50;;;;;;1571889;74;1145;-58
2022/12/27 08:42:10;;;;;;;;;;;20.60;49.20;;;;;;1571826;74;738;-58
2022/12/27 08:44:12;;;;;;;;;;;20.60;49.20;;;;;;1570774;74;785;-59
2022/12/27 08:46:14;;;;;;;;;;;20.50;49.20;;;;;;1572821;74;774;-58
2022/12/27 08:48:16;;;;;;;;;;;20.50;49.30;;;;;;1568742;74;651;-57
2022/12/27 08:50:17;;;;;;;;;;;20.50;48.90;;;;;;1571503;74;595;-57
2022/12/27 08:52:19;;;;;;;;;;;20.50;48.90;;;;;;1571755;74;1324;-59
2022/12/27 08:54:21;;;;;;;;;;;20.40;48.60;;;;;;1569767;74;1938;-58
2022/12/27 08:56:23;;;;;;;;;;;20.40;48.60;;;;;;1567868;74;778;-58
2022/12/27 08:58:25;;;;;;;;;;;20.40;48.80;;;;;;1569412;74;1162;-59
2022/12/27 09:00:27;;;;;;;;;;;20.40;48.20;;;;;;1571283;74;706;-58
2022/12/27 09:02:34;;;;;;;;;;;20.30;48.40;;;;;;1567909;74;567;-59
2022/12/27 09:04:56;;;;;;;;;;;20.30;48.40;;;;;;1570599;74;722;-57
2022/12/27 09:06:57;;;;;;;;;;;20.30;48.90;;;;;;1622944;71;1577;-58
2022/12/27 09:09:00;;;;;;;;;;;20.30;48.30;;;;;;1632287;71;1209;-58
2022/12/27 09:11:12;;;;;;;;;;;20.20;48.10;;;;;;1632148;71;680;-58
2022/12/27 09:13:14;;;;;;;;;;;20.20;47.80;;;;;;1637754;71;1678;-59
2022/12/27 09:15:16;;;;;;;;;;;20.20;47.60;;;;;;1632237;71;1936;-60
2022/12/27 09:17:18;;;;;;;;;;;20.20;47.50;;;;;;1640009;71;727;-60
2022/12/27 09:19:20;;;;;;;;;;;20.10;47.50;;;;;;1641347;71;1506;-58
2022/12/27 09:21:22;;;;;;;;;;;20.10;47.50;;;;;;1633208;71;1110;-58
2022/12/27 09:23:24;;;;;;;;;;;20.10;47.50;;;;;;1638155;71;722;-58
2022/12/27 09:25:26;;;;;;;;;;;20.10;47.50;;;;;;1643184;71;715;-58
2022/12/27 09:27:28;;;;;;;;;;;20.10;47.30;;;;;;1636479;72;608;-59
2022/12/27 09:29:30;;;;;;;;;;;20.10;47.50;;;;;;1641206;71;1143;-58
2022/12/27 09:31:31;;;;;;;;;;;20.10;47.50;;;;;;1643107;71;764;-59
2022/12/27 09:33:33;;;;;;;;;;;20.10;47.40;;;;;;1647211;71;1946;-59
2022/12/27 09:35:35;;;;;;;;;;;20.10;47.20;;;;;;1643002;71;734;-59
2022/12/27 09:37:37;;;;;;;;;;;20.20;47.30;;;;;;1646972;71;736;-60
2022/12/27 09:39:39;;;;;;;;;;;20.20;47.50;;;;;;1635773;71;1140;-59
2022/12/27 09:41:43;;;;;;;;;;;20.20;47.10;;;;;;1645669;71;730;-59
2022/12/27 09:43:55;;;;;;;;;;;20.20;47.10;;;;;;1644646;71;706;-59
2022/12/27 09:45:58;;;;;;;;;;;20.10;47.20;;;;;;1629625;71;746;-60
2022/12/27 09:48:04;;;;;;;;;;;20.10;46.90;;;;;;1647108;71;1428;-59
2022/12/27 09:50:08;;;;;;;;;;;20.10;47.00;;;;;;1642012;71;1177;-58
2022/12/27 09:52:23;;;;;;;;;;;20.10;47.10;;;;;;1641057;71;1834;-58
2022/12/27 09:54:38;;;;;;;;;;;20.10;47.00;;;;;;1635982;71;1914;-58
2022/12/27 09:56:40;;;;;;;;;;;20.10;47.00;;;;;;1639407;71;1943;-58
2022/12/27 09:58:46;;;;;;;;;;;20.10;46.80;;;;;;1640697;71;1188;-58
2022/12/27 10:00:51;;;;;;;;;;;20.10;47.10;;;;;;1638504;71;762;-58
2022/12/27 10:02:53;;;;;;;;;;;20.10;47.00;;;;;;1643367;71;1464;-58
2022/12/27 10:04:56;;;;;;;;;;;20.10;47.00;;;;;;1639525;71;694;-58
2022/12/27 10:07:02;;;;;;;;;;;20.00;46.60;;;;;;1636718;71;799;-59
2022/12/27 10:11:36;;;;;;;;;;;20.10;46.60;;;;;;1576441;74;704;-77
2022/12/27 10:13:43;;;;;;;;;;;20.10;46.50;;;;;;1571628;74;1955;-77
2022/12/27 10:15:49;;;;;;;;;;;19.30;45.90;;;;;;1572727;74;1326;-76
2022/12/27 10:17:56;;;;;;;;;;;20.00;46.30;;;;;;1569762;74;731;-76
2022/12/27 10:20:06;;;;;;;;;;;20.00;46.10;;;;;;1557121;74;1163;-76
2022/12/27 10:22:10;;;;;;;;;;;20.00;45.80;;;;;;1544376;75;1009;-74
2022/12/27 10:24:19;;;;;;;;;;;19.90;45.50;;;;;;1545652;75;1408;-75
2022/12/27 10:26:21;;;;;;;;;;;19.90;45.50;;;;;;1548881;75;757;-76
2022/12/27 10:28:27;;;;;;;;;;;20.00;45.40;;;;;;1548737;75;734;-76
2022/12/27 10:30:27;;;;;;;;;;;19.90;45.30;;;;;;1543598;75;1582;-76
2022/12/27 10:32:29;;;;;;;;;;;19.90;45.30;;;;;;1550218;75;746;-76
2022/12/27 10:34:30;;;;;;;;;;;19.90;45.20;;;;;;1548711;75;1912;-76
2022/12/27 10:36:32;;;;;;;;;;;19.90;45.10;;;;;;1548930;75;740;-76
2022/12/27 10:38:34;;;;;;;;;;;19.90;45.00;;;;;;1546099;75;693;-77
2022/12/27 10:40:41;;;;;;;;;;;19.90;45.00;;;;;;1550617;74;1136;-77
2022/12/27 10:42:47;;;;;;;;;;;19.80;44.80;;;;;;1541040;75;830;-76
2022/12/27 10:44:49;;;;;;;;;;;19.90;45.00;;;;;;1557124;74;1540;-76
2022/12/27 10:46:51;;;;;;;;;;;19.80;45.00;;;;;;1556164;75;782;-76
2022/12/27 10:48:55;;;;;;;;;;;19.80;45.00;;;;;;1531242;75;636;-74
2022/12/27 10:50:58;;;;;;;;;;;19.90;45.20;;;;;;1546114;75;1081;-75
2022/12/27 10:53:00;;;;;;;;;;;19.90;45.40;;;;;;1545758;75;750;-76
2022/12/27 10:55:02;;;;;;;;;;;19.80;45.20;;;;;;1544568;75;1925;-74
2022/12/27 10:57:17;;;;;;;;;;;19.90;45.40;;;;;;1550267;75;782;-76
2022/12/27 10:59:20;;;;;;;;;;;19.90;45.30;;;;;;1547734;75;1591;-76
2022/12/27 11:01:23;;;;;;;;;;;19.90;45.50;;;;;;1556201;75;780;-76
2022/12/27 11:03:27;;;;;;;;;;;19.90;45.40;;;;;;1558865;75;731;-75
2022/12/27 11:05:29;;;;;;;;;;;19.90;45.40;;;;;;1555495;75;696;-76
2022/12/27 11:07:32;;;;;;;;;;;19.80;45.10;;;;;;1554168;75;698;-77
2022/12/27 11:09:37;;;;;;;;;;;19.80;45.10;;;;;;1543357;75;1115;-74
2022/12/27 11:11:39;;;;;;;;;;;19.80;44.80;;;;;;1552925;75;764;-77
2022/12/27 11:13:41;;;;;;;;;;;19.90;45.00;;;;;;1544889;75;736;-76
2022/12/27 11:15:43;;;;;;;;;;;19.70;45.00;;;;;;1545795;75;1935;-75
2022/12/27 11:17:46;;;;;;;;;;;19.70;45.10;;;;;;1551749;75;737;-76
2022/12/27 11:19:49;;;;;;;;;;;19.80;44.80;;;;;;1547291;75;1183;-76
2022/12/27 11:21:52;;;;;;;;;;;19.70;44.90;;;;;;1550575;75;747;-76
2022/12/27 11:23:55;;;;;;;;;;;19.70;45.10;;;;;;1545783;75;724;-75
2022/12/27 11:26:04;;;;;;;;;;;19.70;44.80;;;;;;1546921;75;1521;-75
2022/12/27 11:28:07;;;;;;;;;;;19.70;44.80;;;;;;1543106;75;741;-75
2022/12/27 11:30:11;;;;;;;;;;;19.70;45.10;;;;;;1545326;75;1141;-76
2022/12/27 11:32:13;;;;;;;;;;;19.70;45.00;;;;;;1543021;75;1072;-77
2022/12/27 11:34:16;;;;;;;;;;;19.70;45.00;;;;;;1546055;75;1939;-76
2022/12/27 11:36:19;;;;;;;;;;;19.70;44.80;;;;;;1548752;75;732;-75
2022/12/27 11:38:28;;;;;;;;;;;19.70;44.90;;;;;;1545297;75;1544;-76
2022/12/27 11:40:33;;;;;;;;;;;19.70;44.80;;;;;;1547998;74;1497;-76
2022/12/27 11:42:37;;;;;;;;;;;19.60;44.70;;;;;;1551683;75;1897;-76
2022/12/27 11:44:40;;;;;;;;;;;19.60;44.80;;;;;;1549139;74;1925;-76
2022/12/27 11:46:52;;;;;;;;;;;19.60;45.00;;;;;;1553104;75;699;-75
2022/12/27 11:48:56;;;;;;;;;;;19.60;45.00;;;;;;1553216;75;728;-77
2022/12/27 11:51:15;;;;;;;;;;;19.60;45.10;;;;;;1543174;75;1102;-75
2022/12/27 11:53:28;;;;;;;;;;;19.60;45.00;;;;;;1541376;75;758;-76
2022/12/27 11:55:31;;;;;;;;;;;19.70;45.10;;;;;;1551305;75;2140;-76
2022/12/27 11:57:38;;;;;;;;;;;19.60;45.10;;;;;;1545531;75;750;-77
2022/12/27 11:59:58;;;;;;;;;;;19.60;45.20;;;;;;1533937;74;1270;-75
2022/12/27 12:02:08;;;;;;;;;;;19.60;45.30;;;;;;1547151;75;759;-76
2022/12/27 12:04:23;;;;;;;;;;;19.50;45.20;;;;;;1543517;75;2026;-77
2022/12/27 12:06:36;;;;;;;;;;;19.60;45.70;;;;;;1549957;75;764;-77
2022/12/27 12:08:45;;;;;;;;;;;19.50;45.70;;;;;;1539908;75;1488;-76
2022/12/27 12:10:49;;;;;;;;;;;19.50;45.70;;;;;;1545922;75;1960;-76
2022/12/27 12:12:59;;;;;;;;;;;19.60;45.80;;;;;;1545683;75;724;-76
2022/12/27 12:15:14;;;;;;;;;;;19.60;45.90;;;;;;1549635;75;1943;-77
2022/12/27 12:17:30;;;;;;;;;;;19.50;45.80;;;;;;1544288;75;1554;-74
2022/12/27 12:19:52;;;;;;;;;;;19.50;45.80;;;;;;1548878;75;1152;-76
2022/12/27 12:22:07;;;;;;;;;;;19.40;45.70;;;;;;1547353;75;752;-76
2022/12/27 12:24:13;;;;;;;;;;;19.50;45.90;;;;;;1540678;75;767;-74
2022/12/27 12:26:17;;;;;;;;;;;19.50;46.00;;;;;;1547135;75;1871;-75
2022/12/27 12:28:20;;;;;;;;;;;19.40;45.90;;;;;;1544118;75;1828;-77
2022/12/27 12:30:33;;;;;;;;;;;19.40;45.90;;;;;;1545622;75;1585;-76
2022/12/27 12:32:36;;;;;;;;;;;19.50;46.20;;;;;;1543336;75;1127;-76
2022/12/27 12:34:40;;;;;;;;;;;19.40;46.20;;;;;;1544941;75;1903;-77
2022/12/27 12:36:50;;;;;;;;;;;19.50;46.30;;;;;;1545977;75;1577;-74
2022/12/27 12:39:11;;;;;;;;;;;19.40;46.30;;;;;;1552389;75;1927;-75
2022/12/27 12:41:31;;;;;;;;;;;19.40;46.10;;;;;;1551158;75;1915;-77
2022/12/27 12:43:51;;;;;;;;;;;19.50;46.10;;;;;;1556197;75;858;-77
2022/12/27 12:46:11;;;;;;;;;;;19.40;46.00;;;;;;1547497;75;704;-77
2022/12/27 12:48:30;;;;;;;;;;;19.40;46.20;;;;;;1546606;75;765;-76
2022/12/27 12:50:51;;;;;;;;;;;19.40;46.20;;;;;;1542566;75;1290;-76
2022/12/27 12:52:55;;;;;;;;;;;19.40;46.20;;;;;;1548374;75;1300;-76
2022/12/27 12:54:58;;;;;;;;;;;19.40;46.20;;;;;;1544925;75;1933;-76
2022/12/27 12:57:08;;;;;;;;;;;19.40;46.30;;;;;;1546876;75;675;-76
2022/12/27 12:59:11;;;;;;;;;;;19.40;46.30;;;;;;1547983;75;1137;-77
2022/12/27 13:01:18;;;;;;;;;;;19.30;46.50;;;;;;1544818;75;1062;-76
2022/12/27 13:03:38;;;;;;;;;;;19.40;46.50;;;;;;1545351;75;958;-77
2022/12/27 13:05:44;;;;;;;;;;;19.30;46.50;;;;;;1545502;75;1424;-76
2022/12/27 13:07:48;;;;;;;;;;;19.30;46.50;;;;;;1541535;75;603;-77
2022/12/27 13:10:06;;;;;;;;;;;19.40;46.30;;;;;;1545460;75;1943;-77
2022/12/27 13:12:12;;;;;;;;;;;19.40;46.30;;;;;;1547560;75;840;-76
2022/12/27 13:14:19;;;;;;;;;;;19.30;46.30;;;;;;1546284;75;717;-76
2022/12/27 13:16:31;;;;;;;;;;;19.30;46.00;;;;;;1550569;75;1931;-75
2022/12/27 13:18:35;;;;;;;;;;;19.30;46.00;;;;;;1554913;75;1571;-76
2022/12/27 13:20:45;;;;;;;;;;;19.30;46.00;;;;;;1546203;75;1205;-76
2022/12/27 13:22:57;;;;;;;;;;;19.30;46.00;;;;;;1544786;75;1090;-76
2022/12/27 13:25:03;;;;;;;;;;;19.30;46.10;;;;;;1546550;75;726;-75
2022/12/27 13:27:10;;;;;;;;;;;19.30;46.30;;;;;;1543378;75;1994;-77
2022/12/27 13:29:30;;;;;;;;;;;19.20;45.90;;;;;;1546534;75;1795;-77
2022/12/27 13:31:37;;;;;;;;;;;19.30;46.00;;;;;;1546113;75;778;-75
2022/12/27 13:33:49;;;;;;;;;;;19.30;46.00;;;;;;1543512;75;1800;-76
2022/12/27 13:35:56;;;;;;;;;;;19.30;45.90;;;;;;1547160;75;1927;-74
2022/12/27 13:38:17;;;;;;;;;;;19.30;46.20;;;;;;1541460;75;1998;-76
2022/12/27 13:40:27;;;;;;;;;;;19.20;45.80;;;;;;1545007;75;1141;-76
2022/12/27 13:42:45;;;;;;;;;;;19.30;45.90;;;;;;1541032;75;950;-77
2022/12/27 13:45:05;;;;;;;;;;;19.20;45.80;;;;;;1550329;75;1076;-76
2022/12/27 13:47:09;;;;;;;;;;;19.30;45.90;;;;;;1548357;75;1561;-76
2022/12/27 13:49:29;;;;;;;;;;;19.20;45.70;;;;;;1547383;75;1912;-77
2022/12/27 13:51:35;;;;;;;;;;;19.20;45.70;;;;;;1550402;75;737;-77
2022/12/27 13:53:55;;;;;;;;;;;19.20;45.70;;;;;;1550306;75;1283;-77
2022/12/27 13:56:04;;;;;;;;;;;19.20;45.70;;;;;;1553744;75;1918;-77
2022/12/27 13:58:25;;;;;;;;;;;19.20;45.60;;;;;;1549547;75;1051;-76
2022/12/27 14:00:28;;;;;;;;;;;19.20;45.80;;;;;;1550485;74;1565;-77
2022/12/27 14:02:34;;;;;;;;;;;19.20;45.70;;;;;;1550448;75;870;-77
2022/12/27 14:04:44;;;;;;;;;;;19.10;45.40;;;;;;1541070;75;1559;-74